Time;durP1;ratioP1;P1;durP2;ratioP2;P2;SDS_P1;SDS_P2;PMS_P1;PMS_P2;Temp;Humidity;BMP_temperature;BMP_pressure;BME280_temperature;BME280_humidity;BME280_pressure;Samples;Min_cycle;Max_cycle;Signal;HPM_P1;HPM_P2
2024/02/13 00:00:38;;;;;;;6.72;3.97;;;5.70;99.90;;;;;;5030428;28;20415;-92
2024/02/13 00:03:05;;;;;;;10.02;5.15;;;5.60;99.90;;;;;;5021368;28;20064;-93
2024/02/13 00:05:33;;;;;;;9.63;4.53;;;5.70;99.90;;;;;;5004298;28;20041;-91
2024/02/13 00:08:00;;;;;;;10.55;5.40;;;5.60;99.90;;;;;;5003986;28;20030;-91
2024/02/13 00:10:28;;;;;;;8.68;4.15;;;5.70;99.90;;;;;;5020771;28;20030;-91
2024/02/13 00:12:54;;;;;;;8.70;4.97;;;5.70;99.90;;;;;;5020891;28;20030;-91
2024/02/13 00:15:21;;;;;;;10.02;4.38;;;5.70;99.90;;;;;;5009322;28;20484;-92
2024/02/13 00:17:47;;;;;;;9.25;4.53;;;5.70;99.90;;;;;;5022611;28;20018;-89
2024/02/13 00:20:17;;;;;;;7.75;5.18;;;5.60;99.90;;;;;;5003555;28;20057;-92
2024/02/13 00:22:47;;;;;;;7.80;4.40;;;5.60;99.90;;;;;;5002856;28;20095;-91
2024/02/13 00:25:13;;;;;;;12.10;6.10;;;5.50;99.90;;;;;;5007482;28;20084;-90
2024/02/13 00:27:39;;;;;;;8.73;4.22;;;5.50;99.90;;;;;;5021840;28;20026;-91
2024/02/13 00:30:05;;;;;;;7.57;4.18;;;5.50;99.90;;;;;;5024852;28;20042;-91
2024/02/13 00:32:38;;;;;;;6.75;4.30;;;5.50;99.90;;;;;;5002679;28;20030;-89
2024/02/13 00:35:08;;;;;;;8.07;3.58;;;5.50;99.90;;;;;;5003018;28;20026;-91
2024/02/13 00:37:36;;;;;;;8.32;4.82;;;5.40;99.90;;;;;;5021945;28;20116;-92
2024/02/13 00:40:05;;;;;;;;;;;5.40;99.90;;;;;;5015511;28;20022;-91
2024/02/13 00:42:35;;;;;;;12.65;4.20;;;5.40;99.90;;;;;;5019328;28;19913;-91
2024/02/13 00:45:05;;;;;;;6.38;3.55;;;5.30;99.90;;;;;;5022481;28;20137;-90
2024/02/13 00:47:31;;;;;;;7.07;2.92;;;5.30;99.90;;;;;;5008586;28;20030;-89
2024/02/13 00:49:58;;;;;;;9.63;3.28;;;5.20;99.90;;;;;;5002825;28;20034;-90
2024/02/13 00:52:25;;;;;;;9.60;3.80;;;5.30;99.90;;;;;;5021572;28;20026;-92
2024/02/13 00:54:51;;;;;;;7.93;3.15;;;5.20;99.90;;;;;;5023987;28;20025;-91
2024/02/13 00:57:16;;;;;;;7.13;3.63;;;5.20;99.90;;;;;;5019939;28;20118;-90
2024/02/13 00:59:43;;;;;;;8.60;2.95;;;5.20;99.90;;;;;;5023187;28;20090;-92
2024/02/13 01:02:08;;;;;;;8.00;4.55;;;5.20;99.90;;;;;;5002204;28;20404;-90
2024/02/13 01:04:34;;;;;;;6.28;2.72;;;5.10;99.90;;;;;;5022150;28;20017;-92
2024/02/13 01:06:59;;;;;;;6.93;2.67;;;5.10;99.90;;;;;;5021439;28;20036;-92
2024/02/13 01:09:25;;;;;;;9.13;3.35;;;5.10;99.90;;;;;;5019834;28;20030;-88
2024/02/13 01:11:51;;;;;;;6.85;3.55;;;5.10;99.90;;;;;;5001716;28;20057;-89
2024/02/13 01:14:17;;;;;;;7.78;3.83;;;5.20;99.90;;;;;;5020152;28;20028;-90
2024/02/13 01:16:43;;;;;;;7.10;3.70;;;5.10;99.90;;;;;;5020094;28;20037;-89
2024/02/13 01:19:09;;;;;;;8.10;3.20;;;5.10;99.90;;;;;;5020878;28;20021;-90
2024/02/13 01:21:34;;;;;;;7.55;3.83;;;5.20;99.90;;;;;;5003674;28;20030;-91
2024/02/13 01:24:00;;;;;;;8.43;3.92;;;5.20;99.90;;;;;;5019459;28;20029;-90
2024/02/13 01:26:28;;;;;;;8.18;3.22;;;5.30;99.90;;;;;;5002788;28;20032;-89
2024/02/13 01:28:54;;;;;;;8.10;3.53;;;5.30;99.90;;;;;;5002416;28;20034;-90
2024/02/13 01:31:22;;;;;;;5.20;3.28;;;5.30;99.90;;;;;;5021033;28;20049;-89
2024/02/13 01:33:48;;;;;;;6.15;2.85;;;5.40;99.90;;;;;;5021575;28;20108;-90
2024/02/13 01:36:17;;;;;;;5.80;3.47;;;5.40;99.90;;;;;;5020499;28;20060;-93
2024/02/13 01:38:43;;;;;;;6.38;2.38;;;5.50;99.90;;;;;;5020324;28;20022;-89
2024/02/13 01:41:09;;;;;;;6.72;2.90;;;5.50;99.90;;;;;;5020380;28;20029;-91
2024/02/13 01:43:34;;;;;;;5.68;3.20;;;5.60;99.90;;;;;;5021095;28;20033;-91
2024/02/13 01:46:02;;;;;;;9.38;3.55;;;5.60;99.90;;;;;;5019168;28;20381;-92
2024/02/13 01:48:29;;;;;;;;;;;5.70;99.90;;;;;;5002587;28;20077;-91
2024/02/13 01:50:57;;;;;;;12.80;3.78;;;5.70;99.90;;;;;;5020417;28;19936;-91
2024/02/13 01:53:26;;;;;;;8.18;3.25;;;5.70;99.90;;;;;;5021056;28;20026;-91
2024/02/13 01:55:53;;;;;;;5.32;3.38;;;5.70;99.90;;;;;;5003578;28;20030;-91
2024/02/13 01:58:19;;;;;;;6.45;4.15;;;5.70;99.90;;;;;;5020577;28;20073;-90
2024/02/13 02:00:47;;;;;;;7.55;3.70;;;5.70;99.90;;;;;;5020699;28;20022;-92
2024/02/13 02:03:17;;;;;;;8.27;3.83;;;5.70;99.90;;;;;;5020243;28;20033;-90
2024/02/13 02:05:43;;;;;;;5.50;3.80;;;5.70;99.90;;;;;;5002759;28;20029;-91
2024/02/13 02:08:13;;;;;;;10.80;4.68;;;5.80;99.90;;;;;;5002682;28;20036;-91
2024/02/13 02:10:42;;;;;;;6.70;4.35;;;5.80;99.90;;;;;;5000993;28;20085;-92
2024/02/13 02:13:08;;;;;;;9.35;3.67;;;5.90;99.90;;;;;;5001761;28;20026;-90
2024/02/13 02:15:35;;;;;;;12.18;5.20;;;5.80;99.90;;;;;;5019593;28;20060;-91
2024/02/13 02:18:00;;;;;;;8.95;5.53;;;5.90;99.90;;;;;;5021450;28;20170;-91
2024/02/13 02:20:26;;;;;;;9.35;5.75;;;5.90;99.90;;;;;;5020092;28;20358;-91
2024/02/13 02:22:52;;;;;;;8.25;4.47;;;5.90;99.90;;;;;;5020060;28;20030;-91
2024/02/13 02:25:23;;;;;;;9.80;4.03;;;5.80;99.90;;;;;;5020847;28;20056;-90
2024/02/13 02:27:50;;;;;;;9.60;5.75;;;5.90;99.90;;;;;;5003558;28;20056;-91
2024/02/13 02:30:17;;;;;;;14.77;5.60;;;5.90;99.90;;;;;;5020846;28;20448;-89
2024/02/13 02:32:42;;;;;;;6.68;3.47;;;5.90;99.90;;;;;;5020342;28;20109;-91
2024/02/13 02:35:08;;;;;;;6.82;4.30;;;5.90;99.90;;;;;;5003187;28;20042;-90
2024/02/13 02:37:36;;;;;;;8.68;4.85;;;5.90;99.90;;;;;;5021515;28;20026;-90
2024/02/13 02:40:03;;;;;;;11.30;3.70;;;5.80;99.90;;;;;;5016312;28;20496;-91
2024/02/13 02:42:29;;;;;;;7.95;4.80;;;5.90;99.90;;;;;;5002330;28;20127;-89
2024/02/13 02:44:54;;;;;;;8.98;4.70;;;5.90;99.90;;;;;;5022175;28;20049;-92
2024/02/13 02:47:22;;;;;;;8.00;5.30;;;5.80;99.90;;;;;;5021075;28;20536;-90
2024/02/13 02:49:48;;;;;;;6.30;4.47;;;5.70;99.90;;;;;;5020348;28;20037;-91
2024/02/13 02:52:13;;;;;;;6.88;3.40;;;5.70;99.90;;;;;;5019129;28;20030;-90
2024/02/13 02:54:41;;;;;;;12.18;5.28;;;5.60;99.90;;;;;;5001356;28;20018;-92
2024/02/13 02:57:07;;;;;;;9.40;4.30;;;5.60;99.90;;;;;;5020432;28;20018;-89
2024/02/13 02:59:34;;;;;;;6.20;3.50;;;5.60;99.90;;;;;;5019931;28;20026;-91
2024/02/13 03:02:01;;;;;;;8.02;4.25;;;5.50;99.90;;;;;;5020108;28;20021;-91
2024/02/13 03:04:27;;;;;;;8.25;4.95;;;5.50;99.90;;;;;;5019740;28;20030;-89
2024/02/13 03:06:52;;;;;;;9.10;5.25;;;5.50;99.90;;;;;;5019935;28;20033;-90
2024/02/13 03:09:18;;;;;;;11.57;5.65;;;5.50;99.90;;;;;;5002752;28;20026;-89
2024/02/13 03:11:44;;;;;;;9.38;5.30;;;5.50;99.90;;;;;;5002245;28;20029;-89
2024/02/13 03:14:10;;;;;;;15.55;4.90;;;5.50;99.90;;;;;;5020002;28;20030;-91
2024/02/13 03:16:36;;;;;;;8.18;4.40;;;5.60;99.90;;;;;;5018704;28;20050;-90
2024/02/13 03:19:03;;;;;;;10.38;4.43;;;5.50;99.90;;;;;;5001612;28;20802;-90
2024/02/13 03:21:28;;;;;;;11.60;5.80;;;5.50;99.90;;;;;;5023189;28;20022;-90
2024/02/13 03:23:54;;;;;;;10.65;4.38;;;5.60;99.90;;;;;;5023152;28;20040;-90
2024/02/13 03:26:20;;;;;;;15.55;5.03;;;5.60;99.90;;;;;;5024370;28;20029;-91
2024/02/13 03:28:46;;;;;;;10.18;5.13;;;5.50;99.90;;;;;;5023567;28;20037;-91
2024/02/13 03:31:11;;;;;;;8.38;3.75;;;5.50;99.90;;;;;;5005488;28;20064;-90
2024/02/13 03:33:37;;;;;;;10.05;4.30;;;5.50;99.90;;;;;;5005655;28;20025;-89
2024/02/13 03:36:03;;;;;;;6.57;4.50;;;5.40;99.90;;;;;;5022094;28;20026;-91
2024/02/13 03:38:28;;;;;;;7.70;3.83;;;5.40;99.90;;;;;;5024504;28;20484;-92
2024/02/13 03:40:54;;;;;;;6.75;4.47;;;5.40;99.90;;;;;;5024275;28;20026;-90
2024/02/13 03:43:21;;;;;;;8.93;4.65;;;5.30;99.90;;;;;;5023300;28;20025;-90
2024/02/13 03:45:48;;;;;;;11.55;3.97;;;5.30;99.90;;;;;;5022563;28;20024;-90
2024/02/13 03:48:14;;;;;;;7.53;4.68;;;5.20;99.90;;;;;;5023929;28;20014;-90
2024/02/13 03:50:41;;;;;;;9.43;4.78;;;5.20;99.90;;;;;;5006337;28;20029;-88
2024/02/13 03:53:07;;;;;;;11.68;5.28;;;5.20;99.90;;;;;;5024520;28;20029;-92
2024/02/13 03:55:32;;;;;;;7.93;3.90;;;5.20;99.90;;;;;;5023802;28;20036;-91
2024/02/13 03:57:58;;;;;;;6.70;4.05;;;5.10;99.90;;;;;;5022773;28;20125;-91
2024/02/13 04:00:24;;;;;;;7.45;3.47;;;5.00;99.90;;;;;;5023090;28;20030;-89
2024/02/13 04:02:49;;;;;;;6.90;5.00;;;5.00;99.90;;;;;;5023425;28;20653;-90
2024/02/13 04:05:15;;;;;;;7.57;4.18;;;5.00;99.90;;;;;;5005324;28;20374;-91
2024/02/13 04:07:41;;;;;;;9.13;4.80;;;5.00;99.90;;;;;;5023425;28;20123;-90
2024/02/13 04:10:07;;;;;;;10.13;4.45;;;4.90;99.90;;;;;;5023278;28;20099;-91
2024/02/13 04:12:33;;;;;;;8.77;4.55;;;4.90;99.90;;;;;;5021942;28;20030;-90
2024/02/13 04:14:59;;;;;;;8.88;3.95;;;4.90;99.90;;;;;;5021976;28;20409;-91
2024/02/13 04:17:25;;;;;;;8.30;5.63;;;4.90;99.90;;;;;;5022582;28;20018;-91
2024/02/13 04:19:52;;;;;;;8.13;5.60;;;4.80;99.90;;;;;;5022290;28;20032;-91
2024/02/13 04:22:18;;;;;;;11.45;5.10;;;4.90;99.90;;;;;;5004405;28;20029;-93
2024/02/13 04:24:43;;;;;;;10.93;5.35;;;4.80;99.90;;;;;;5022633;28;20039;-91
2024/02/13 04:27:09;;;;;;;13.63;4.70;;;4.80;99.90;;;;;;5022317;28;20030;-89
2024/02/13 04:29:35;;;;;;;9.55;5.07;;;4.80;99.90;;;;;;5005809;28;20053;-91
2024/02/13 04:32:01;;;;;;;8.27;4.53;;;4.80;99.90;;;;;;5022075;28;20094;-90
2024/02/13 04:34:27;;;;;;;8.52;4.75;;;4.80;99.90;;;;;;5020920;28;20022;-89
2024/02/13 04:36:53;;;;;;;9.13;5.57;;;4.80;99.90;;;;;;5022304;28;20034;-91
2024/02/13 04:39:19;;;;;;;9.30;4.80;;;4.80;99.90;;;;;;5021409;28;20503;-90
2024/02/13 04:41:44;;;;;;;7.63;5.45;;;4.80;99.90;;;;;;5020528;28;20022;-91
2024/02/13 04:44:11;;;;;;;7.47;4.70;;;4.80;99.90;;;;;;5020317;28;20668;-91
2024/02/13 04:46:39;;;;;;;9.63;4.80;;;4.80;99.90;;;;;;5019796;28;20476;-91
2024/02/13 04:49:08;;;;;;;6.30;3.53;;;4.80;99.90;;;;;;5020598;28;20022;-91
2024/02/13 04:51:34;;;;;;;8.02;4.43;;;4.80;99.90;;;;;;5021980;28;20459;-91
2024/02/13 04:54:00;;;;;;;9.65;5.32;;;4.80;99.90;;;;;;5020870;28;20056;-89
2024/02/13 04:56:26;;;;;;;8.02;4.32;;;4.80;99.90;;;;;;5020015;28;20374;-92
2024/02/13 04:58:55;;;;;;;7.75;4.20;;;4.70;99.90;;;;;;5018824;28;20026;-92
2024/02/13 05:01:25;;;;;;;9.75;5.20;;;4.80;99.90;;;;;;5026582;28;20082;-92
2024/02/13 05:09:04;;;;;;;10.95;6.10;;;4.80;99.90;;;;;;5021605;28;20080;-91
2024/02/13 05:11:30;;;;;;;11.48;5.35;;;4.80;99.90;;;;;;5004209;28;20030;-91
2024/02/13 05:13:59;;;;;;;7.93;4.57;;;4.80;99.90;;;;;;5003763;28;20140;-90
2024/02/13 05:16:26;;;;;;;9.90;4.55;;;4.80;99.90;;;;;;5003884;28;20026;-91
2024/02/13 05:18:52;;;;;;;9.75;5.50;;;4.80;99.90;;;;;;5002566;28;20208;-94
2024/02/13 05:21:20;;;;;;;11.32;5.40;;;4.80;99.90;;;;;;5004106;28;20026;-91
2024/02/13 05:23:49;;;;;;;13.02;5.72;;;4.70;99.90;;;;;;5021852;28;20086;-91
2024/02/13 05:26:17;;;;;;;10.00;5.28;;;4.80;99.90;;;;;;5021084;28;20105;-93
2024/02/13 05:28:44;;;;;;;10.13;5.43;;;4.80;99.90;;;;;;5020459;28;20093;-90
2024/02/13 05:31:10;;;;;;;9.52;5.57;;;4.80;99.90;;;;;;5003023;28;20030;-90
2024/02/13 05:33:36;;;;;;;7.85;5.03;;;4.90;99.90;;;;;;5019822;28;20037;-92
2024/02/13 05:36:03;;;;;;;12.27;6.38;;;4.90;99.90;;;;;;5021591;28;20026;-90
2024/02/13 05:38:35;;;;;;;8.73;4.55;;;4.90;99.90;;;;;;5021699;28;20028;-90
2024/02/13 05:41:01;;;;;;;12.15;5.35;;;4.90;99.90;;;;;;5020926;28;20030;-91
2024/02/13 05:43:27;;;;;;;10.20;5.97;;;4.90;99.90;;;;;;5021525;28;20443;-92
2024/02/13 05:45:52;;;;;;;8.65;5.45;;;4.90;99.90;;;;;;5020804;28;20029;-90
2024/02/13 05:48:18;;;;;;;13.55;5.15;;;4.90;99.90;;;;;;5003076;28;20071;-90
2024/02/13 05:50:46;;;;;;;9.90;5.20;;;4.90;99.90;;;;;;5020023;28;20089;-89
2024/02/13 05:53:12;;;;;;;6.68;5.32;;;4.90;99.90;;;;;;5019793;28;20022;-91
2024/02/13 05:55:38;;;;;;;11.60;6.68;;;4.90;99.90;;;;;;5002501;28;20032;-91
2024/02/13 05:58:05;;;;;;;10.00;5.97;;;4.90;99.90;;;;;;5003209;28;20022;-91
2024/02/13 06:00:31;;;;;;;8.68;4.90;;;4.90;99.90;;;;;;5020050;28;20029;-88
2024/02/13 06:03:00;;;;;;;7.80;5.50;;;4.90;99.90;;;;;;5019550;28;20030;-87
2024/02/13 06:05:29;;;;;;;9.43;5.70;;;4.90;99.90;;;;;;5001648;28;20033;-90
2024/02/13 06:07:55;;;;;;;9.85;5.88;;;4.90;99.90;;;;;;5022422;28;20010;-91
2024/02/13 06:10:21;;;;;;;9.55;5.45;;;5.00;99.90;;;;;;5004151;28;20419;-89
2024/02/13 06:12:47;;;;;;;9.55;5.25;;;5.00;99.90;;;;;;5002691;28;20033;-90
2024/02/13 06:15:13;;;;;;;9.07;5.85;;;5.00;99.90;;;;;;5002139;28;20049;-90
2024/02/13 06:17:40;;;;;;;12.13;5.53;;;5.00;99.90;;;;;;5001732;28;20018;-89
2024/02/13 06:20:08;;;;;;;10.32;7.80;;;4.90;99.90;;;;;;5002237;28;20041;-91
2024/02/13 06:22:34;;;;;;;12.68;6.43;;;4.90;99.90;;;;;;5001379;28;20030;-91
2024/02/13 06:25:04;;;;;;;11.73;6.72;;;4.80;99.90;;;;;;5020087;28;20053;-89
2024/02/13 06:27:34;;;;;;;12.48;6.50;;;4.80;99.90;;;;;;5017862;28;20038;-90
2024/02/13 06:30:01;;;;;;;7.68;6.15;;;4.80;99.90;;;;;;5019365;28;20038;-90
2024/02/13 06:32:27;;;;;;;8.70;5.72;;;4.80;99.90;;;;;;5018660;28;21610;-92
2024/02/13 06:34:54;;;;;;;12.32;6.70;;;4.80;99.90;;;;;;5000439;28;20049;-91
2024/02/13 06:37:21;;;;;;;10.35;6.72;;;4.70;99.90;;;;;;5017192;28;20022;-90
2024/02/13 06:39:48;;;;;;;12.15;7.00;;;4.70;99.90;;;;;;5015218;28;20057;-92
2024/02/13 06:42:14;;;;;;;8.77;6.28;;;4.70;99.90;;;;;;5018411;28;20057;-91
2024/02/13 06:44:40;;;;;;;10.80;7.15;;;4.70;99.90;;;;;;5016669;28;20033;-91
2024/02/13 06:47:07;;;;;;;15.15;6.93;;;4.80;99.90;;;;;;5015972;28;20122;-91
2024/02/13 06:49:36;;;;;;;14.93;6.45;;;4.80;99.90;;;;;;4998661;28;20030;-91
2024/02/13 06:52:03;;;;;;;10.52;5.82;;;4.80;99.90;;;;;;5000114;28;20037;-90
2024/02/13 06:54:30;;;;;;;8.57;6.13;;;4.90;99.90;;;;;;5001266;28;20037;-91
2024/02/13 06:56:59;;;;;;;10.73;6.22;;;4.90;99.90;;;;;;5001411;28;20026;-91
2024/02/13 06:59:27;;;;;;;8.30;4.75;;;4.90;99.90;;;;;;5011612;28;20029;-91
2024/02/13 07:01:53;;;;;;;16.70;6.68;;;5.00;99.90;;;;;;5017564;28;20453;-92
2024/02/13 07:04:19;;;;;;;9.63;5.47;;;5.00;99.90;;;;;;5017053;28;20030;-90
2024/02/13 07:06:44;;;;;;;8.27;5.40;;;5.00;99.90;;;;;;4999324;28;20080;-91
2024/02/13 07:09:10;;;;;;;12.90;5.45;;;5.10;99.90;;;;;;4991451;28;20031;-91
2024/02/13 07:11:36;;;;;;;9.98;5.22;;;5.10;99.90;;;;;;5019033;28;20084;-90
2024/02/13 07:14:02;;;;;;;12.15;6.63;;;5.10;99.90;;;;;;5000091;28;20521;-92
2024/02/13 07:16:28;;;;;;;10.07;5.63;;;5.10;99.90;;;;;;5017743;28;20042;-90
2024/02/13 07:18:53;;;;;;;14.40;6.28;;;5.10;99.90;;;;;;4998765;28;20030;-89
2024/02/13 07:21:19;;;;;;;11.85;6.47;;;5.20;99.90;;;;;;5015745;28;20026;-90
2024/02/13 07:23:46;;;;;;;12.82;6.18;;;5.20;99.90;;;;;;5016927;28;20161;-91
2024/02/13 07:26:12;;;;;;;10.90;5.68;;;5.20;99.90;;;;;;4999051;28;20165;-89
2024/02/13 07:28:41;;;;;;;12.55;6.68;;;5.20;99.90;;;;;;5010371;28;20472;-91
2024/02/13 07:31:10;;;;;;;8.50;6.22;;;5.20;99.90;;;;;;5017469;28;20038;-91
2024/02/13 07:33:36;;;;;;;12.23;5.57;;;5.20;99.90;;;;;;5016970;28;20022;-93
2024/02/13 07:36:02;;;;;;;12.57;5.47;;;5.30;99.90;;;;;;4998536;28;20056;-89
2024/02/13 07:38:28;;;;;;;10.68;5.72;;;5.30;99.90;;;;;;5000626;28;20022;-90
2024/02/13 07:40:54;;;;;;;9.23;5.75;;;5.30;99.90;;;;;;5016734;28;20057;-91
2024/02/13 07:43:19;;;;;;;12.48;6.07;;;5.30;99.90;;;;;;5018274;28;20490;-90
2024/02/13 07:45:45;;;;;;;13.05;7.05;;;5.40;99.90;;;;;;5010028;28;20026;-92
2024/02/13 07:48:12;;;;;;;9.32;6.28;;;5.40;99.90;;;;;;5013961;28;20527;-91
2024/02/13 07:50:38;;;;;;;10.57;6.05;;;5.40;99.90;;;;;;4999364;28;20038;-89
2024/02/13 07:53:06;;;;;;;12.35;5.43;;;5.50;99.90;;;;;;5000348;28;20026;-90
2024/02/13 07:55:35;;;;;;;;;;;5.50;99.90;;;;;;5017290;28;20018;-90
2024/02/13 07:58:04;;;;;;;11.50;5.68;;;5.60;99.90;;;;;;5000941;28;19937;-90
2024/02/13 08:00:33;;;;;;;15.18;6.43;;;5.60;99.90;;;;;;4985344;28;20439;-90
2024/02/13 08:02:59;;;;;;;10.93;6.40;;;5.70;99.90;;;;;;4998918;28;20026;-92
2024/02/13 08:05:25;;;;;;;11.85;6.90;;;5.70;99.90;;;;;;5000083;28;20054;-89
2024/02/13 08:07:51;;;;;;;11.77;5.93;;;5.80;99.90;;;;;;5020981;28;20403;-88
2024/02/13 08:10:17;;;;;;;10.40;5.15;;;5.90;99.90;;;;;;5020326;28;20083;-90
2024/02/13 08:12:43;;;;;;;10.27;6.57;;;6.00;99.90;;;;;;5019623;28;20488;-91
2024/02/13 08:15:09;;;;;;;10.10;6.68;;;6.10;99.90;;;;;;5001594;28;20028;-91
2024/02/13 08:17:35;;;;;;;14.25;5.50;;;6.10;99.90;;;;;;5020692;28;20111;-90
2024/02/13 08:20:03;;;;;;;9.77;5.75;;;6.00;99.90;;;;;;5020290;28;20054;-91
2024/02/13 08:22:29;;;;;;;11.18;6.43;;;6.10;99.90;;;;;;5019867;28;20018;-91
2024/02/13 08:25:00;;;;;;;11.70;6.60;;;6.20;99.90;;;;;;5003095;28;20057;-90
2024/02/13 08:27:26;;;;;;;11.27;5.95;;;6.20;99.90;;;;;;5019603;28;20501;-90
2024/02/13 08:29:52;;;;;;;10.13;6.10;;;6.20;99.90;;;;;;4983536;28;20038;-92
2024/02/13 08:32:21;;;;;;;10.85;6.22;;;6.30;99.90;;;;;;5019928;28;20147;-91
2024/02/13 08:34:46;;;;;;;14.82;7.35;;;6.40;99.90;;;;;;5003027;28;20488;-91
2024/02/13 08:37:14;;;;;;;11.02;6.82;;;6.40;99.90;;;;;;5003220;28;20077;-91
2024/02/13 08:39:39;;;;;;;13.68;6.85;;;6.50;99.90;;;;;;5021699;28;20018;-90
2024/02/13 08:42:06;;;;;;;10.43;6.35;;;6.40;99.90;;;;;;5019220;28;20447;-90
2024/02/13 08:44:34;;;;;;;11.30;5.82;;;6.50;99.90;;;;;;5017963;28;20030;-91
2024/02/13 08:47:00;;;;;;;11.30;5.97;;;6.60;99.90;;;;;;5000194;28;20455;-93
2024/02/13 08:49:26;;;;;;;9.57;6.57;;;6.70;99.90;;;;;;4990890;28;20088;-90
2024/02/13 08:51:53;;;;;;;16.75;6.32;;;6.50;99.90;;;;;;5000594;28;20037;-91
2024/02/13 08:54:18;;;;;;;11.48;6.13;;;6.50;99.90;;;;;;5016766;28;20025;-89
2024/02/13 08:56:45;;;;;;;9.48;5.78;;;6.50;99.90;;;;;;4999940;28;20380;-92
2024/02/13 08:59:10;;;;;;;11.35;6.13;;;6.50;99.90;;;;;;4999587;28;20301;-90
2024/02/13 09:01:36;;;;;;;12.40;7.10;;;6.60;99.90;;;;;;4999599;28;20096;-91
2024/02/13 09:04:02;;;;;;;12.25;5.57;;;6.70;99.90;;;;;;5005109;28;20635;-93
2024/02/13 09:06:28;;;;;;;12.55;6.25;;;6.80;99.90;;;;;;4994645;28;20492;-92
2024/02/13 09:08:54;;;;;;;15.15;7.57;;;6.80;99.90;;;;;;5013017;28;20064;-91
2024/02/13 09:11:21;;;;;;;14.63;5.88;;;6.90;99.90;;;;;;5003626;28;20050;-92
2024/02/13 09:13:47;;;;;;;11.95;5.95;;;7.00;99.90;;;;;;5026377;28;20090;-91
2024/02/13 09:16:14;;;;;;;13.85;6.80;;;7.00;99.90;;;;;;5022897;28;20005;-91
2024/02/13 09:18:40;;;;;;;13.55;6.57;;;6.90;99.90;;;;;;5020943;28;20041;-92
2024/02/13 09:21:09;;;;;;;10.93;5.90;;;7.00;99.90;;;;;;5024542;28;20030;-91
2024/02/13 09:23:35;;;;;;;11.25;5.85;;;7.00;99.90;;;;;;5020366;28;20141;-92
2024/02/13 09:26:01;;;;;;;16.55;6.68;;;7.00;99.90;;;;;;5019759;28;20037;-93
2024/02/13 09:28:27;;;;;;;12.07;6.95;;;7.10;99.90;;;;;;4996745;28;20038;-89
2024/02/13 09:30:53;;;;;;;10.70;7.18;;;7.10;99.90;;;;;;5014837;28;20025;-91
2024/02/13 09:33:21;;;;;;;10.30;6.10;;;7.20;99.90;;;;;;4992338;28;20116;-92
2024/02/13 09:35:50;;;;;;;10.15;5.18;;;7.40;99.90;;;;;;5015136;28;20022;-93
2024/02/13 09:38:16;;;;;;;10.70;4.93;;;7.40;99.90;;;;;;5010758;28;20030;-91
2024/02/13 09:40:42;;;;;;;14.23;4.88;;;7.40;99.90;;;;;;5011883;28;20026;-90
2024/02/13 09:43:08;;;;;;;12.10;4.93;;;7.30;99.90;;;;;;5009342;28;20081;-91
2024/02/13 09:45:39;;;;;;;8.55;4.90;;;7.20;99.90;;;;;;4994882;28;20037;-93
2024/02/13 09:48:21;;;;;;;11.55;6.57;;;7.20;99.90;;;;;;5010119;28;20040;-93
2024/02/13 09:50:48;;;;;;;15.85;6.70;;;7.20;99.90;;;;;;5011657;28;20037;-89
2024/02/13 09:53:21;;;;;;;8.18;5.93;;;7.20;99.90;;;;;;5012223;28;20038;-91
2024/02/13 09:55:48;;;;;;;11.43;5.35;;;7.30;99.90;;;;;;4991738;28;20033;-91
2024/02/13 09:58:14;;;;;;;10.50;5.35;;;7.50;99.90;;;;;;5008501;28;20080;-91
2024/02/13 10:00:43;;;;;;;11.15;5.00;;;7.50;98.60;;;;;;5008453;28;20530;-89
2024/02/13 10:03:09;;;;;;;7.75;5.45;;;7.70;99.00;;;;;;5009869;28;20412;-91
2024/02/13 10:05:35;;;;;;;10.10;4.55;;;7.80;95.90;;;;;;4992600;28;20129;-93
2024/02/13 10:08:01;;;;;;;9.77;5.05;;;8.00;95.40;;;;;;5009189;28;20881;-89
2024/02/13 10:10:29;;;;;;;12.85;4.22;;;8.00;95.30;;;;;;5008389;28;20026;-92
2024/02/13 10:12:58;;;;;;;7.82;4.32;;;8.20;95.90;;;;;;5011447;28;20060;-92
2024/02/13 10:15:27;;;;;;;11.05;5.85;;;8.30;94.20;;;;;;5011357;28;20025;-90
2024/02/13 10:17:54;;;;;;;8.23;4.85;;;8.40;94.20;;;;;;5007155;28;20021;-91
2024/02/13 10:20:20;;;;;;;8.40;4.45;;;8.50;92.20;;;;;;4993850;28;20136;-90
2024/02/13 10:22:51;;;;;;;9.73;4.43;;;8.40;91.70;;;;;;4995152;28;20516;-92
2024/02/13 10:25:21;;;;;;;9.68;4.57;;;8.60;92.70;;;;;;4992006;28;20034;-91
2024/02/13 10:27:49;;;;;;;10.13;5.28;;;8.80;91.40;;;;;;5007774;28;20061;-91
2024/02/13 10:30:28;;;;;;;8.98;3.80;;;9.10;91.10;;;;;;4992141;28;20447;-91
2024/02/13 10:32:55;;;;;;;9.57;4.25;;;9.10;88.40;;;;;;5011540;28;20034;-92
2024/02/13 10:35:22;;;;;;;9.68;4.93;;;9.20;88.60;;;;;;5009407;28;20021;-89
2024/02/13 10:37:50;;;;;;;9.40;5.28;;;9.30;87.90;;;;;;5016432;28;20025;-91
2024/02/13 10:40:20;;;;;;;;;;;9.20;87.50;;;;;;5015479;28;20018;-90
2024/02/13 10:42:46;;;;;;;9.70;5.85;;;9.50;87.30;;;;;;5011791;28;19910;-90
2024/02/13 10:45:14;;;;;;;7.50;3.55;;;9.60;86.90;;;;;;5014355;28;20097;-90
2024/02/13 10:47:49;;;;;;;11.27;6.82;;;9.70;85.60;;;;;;5014509;28;20022;-91
2024/02/13 10:50:15;;;;;;;8.93;4.80;;;9.70;85.00;;;;;;5016233;28;20560;-90
2024/02/13 10:52:41;;;;;;;7.20;3.55;;;9.70;82.10;;;;;;5015926;28;20037;-89
2024/02/13 10:55:10;;;;;;;8.57;3.75;;;9.80;85.30;;;;;;4998838;28;20026;-89
2024/02/13 10:57:37;;;;;;;5.03;3.63;;;9.90;82.40;;;;;;5016423;28;20040;-91
2024/02/13 11:00:14;;;;;;;5.30;3.20;;;10.10;81.60;;;;;;5017238;28;20412;-90
2024/02/13 11:02:43;;;;;;;5.55;3.47;;;10.10;81.50;;;;;;4999213;28;20018;-91
2024/02/13 11:05:10;;;;;;;7.22;3.40;;;10.30;80.20;;;;;;5017208;28;20392;-90
2024/02/13 11:07:36;;;;;;;10.77;3.72;;;10.40;79.80;;;;;;5008156;28;20018;-90
2024/02/13 11:10:08;;;;;;;6.32;3.15;;;10.50;80.10;;;;;;5016951;28;20495;-91
2024/02/13 11:12:38;;;;;;;7.10;3.40;;;10.40;78.40;;;;;;5016753;28;20050;-90
2024/02/13 11:15:08;;;;;;;7.65;4.32;;;10.10;79.70;;;;;;5017860;28;20678;-87
2024/02/13 11:17:55;;;;;;;6.07;3.65;;;10.10;79.10;;;;;;5017014;28;20026;-89
2024/02/13 11:20:27;;;;;;;3.22;2.70;;;9.70;80.30;;;;;;5017266;28;20469;-88
2024/02/13 11:23:01;;;;;;;4.50;2.80;;;10.00;77.80;;;;;;5018767;28;20057;-89
2024/02/13 11:25:29;;;;;;;7.68;2.45;;;10.00;78.70;;;;;;5017638;28;20053;-91
2024/02/13 11:28:03;;;;;;;6.40;1.92;;;10.00;76.80;;;;;;5016682;28;20057;-91
2024/02/13 11:30:29;;;;;;;4.15;2.75;;;9.90;76.80;;;;;;4983540;28;20500;-92
2024/02/13 11:33:01;;;;;;;6.82;3.15;;;10.20;77.90;;;;;;5000085;28;20034;-90
2024/02/13 11:35:39;;;;;;;6.25;2.65;;;10.40;76.10;;;;;;5019576;28;20092;-92
2024/02/13 11:38:14;;;;;;;4.38;2.60;;;10.40;75.20;;;;;;5018622;28;20030;-90
2024/02/13 11:40:41;;;;;;;5.32;3.30;;;10.50;74.80;;;;;;5019151;28;20029;-90
2024/02/13 11:43:19;;;;;;;6.93;2.78;;;10.60;76.90;;;;;;5005062;28;20496;-90
2024/02/13 11:45:45;;;;;;;7.05;2.40;;;10.90;73.60;;;;;;5023330;28;20034;-95
2024/02/13 11:48:17;;;;;;;8.88;3.78;;;11.20;70.60;;;;;;5004359;28;20601;-90
2024/02/13 11:50:43;;;;;;;8.05;3.55;;;11.30;70.00;;;;;;5021665;28;20048;-90
2024/02/13 11:53:09;;;;;;;6.57;3.10;;;11.50;70.70;;;;;;5022386;28;20026;-90
2024/02/13 11:55:37;;;;;;;9.25;3.38;;;11.40;69.50;;;;;;5021279;28;20045;-90
2024/02/13 11:58:06;;;;;;;7.53;3.13;;;11.20;69.50;;;;;;5004349;28;20022;-90
2024/02/13 12:00:31;;;;;;;7.28;3.38;;;11.30;67.60;;;;;;5004279;28;20084;-93
2024/02/13 12:02:57;;;;;;;5.72;3.33;;;11.20;68.60;;;;;;5020786;28;20042;-91
2024/02/13 12:05:24;;;;;;;6.35;3.50;;;11.40;67.30;;;;;;5003620;28;20026;-90
2024/02/13 12:07:51;;;;;;;3.88;2.85;;;11.60;67.70;;;;;;5021254;28;20022;-89
2024/02/13 12:10:18;;;;;;;6.70;3.30;;;12.10;64.90;;;;;;5004655;28;20026;-89
2024/02/13 12:12:44;;;;;;;6.28;2.95;;;12.00;65.00;;;;;;5020502;28;20067;-90
2024/02/13 12:15:13;;;;;;;6.10;3.70;;;12.40;64.50;;;;;;5020700;28;20345;-90
2024/02/13 12:17:39;;;;;;;7.57;3.28;;;12.00;64.50;;;;;;5018929;28;20053;-92
2024/02/13 12:20:12;;;;;;;5.47;2.80;;;12.10;63.10;;;;;;5019794;28;20029;-91
2024/02/13 12:22:47;;;;;;;5.65;2.88;;;12.40;64.30;;;;;;5020457;28;20036;-91
2024/02/13 12:25:18;;;;;;;3.67;2.30;;;12.70;60.80;;;;;;5001577;28;20049;-92
2024/02/13 12:27:43;;;;;;;5.53;2.92;;;12.70;60.90;;;;;;5001461;28;20040;-90
2024/02/13 12:30:11;;;;;;;5.88;2.60;;;12.30;61.00;;;;;;5019649;28;20116;-91
2024/02/13 12:32:38;;;;;;;4.40;2.53;;;12.50;61.20;;;;;;5019532;28;20025;-89
2024/02/13 12:35:21;;;;;;;3.83;2.58;;;12.00;60.60;;;;;;5018841;28;20061;-91
2024/02/13 12:37:51;;;;;;;4.55;2.80;;;11.60;61.90;;;;;;4994261;28;20053;-89
2024/02/13 12:40:18;;;;;;;6.93;3.05;;;11.30;65.80;;;;;;5020520;28;20033;-92
2024/02/13 12:42:45;;;;;;;8.40;2.20;;;11.10;66.40;;;;;;5019651;28;20476;-91
2024/02/13 12:45:11;;;;;;;6.05;2.50;;;11.10;69.30;;;;;;5018291;28;20048;-91
2024/02/13 12:47:36;;;;;;;7.90;2.50;;;11.30;68.40;;;;;;5020337;28;20136;-91
2024/02/13 12:50:03;;;;;;;3.15;2.30;;;11.40;68.20;;;;;;5019801;28;20534;-91
2024/02/13 12:52:29;;;;;;;4.03;2.05;;;11.60;67.80;;;;;;5019639;28;20040;-91
2024/02/13 12:54:56;;;;;;;6.82;2.80;;;12.10;62.60;;;;;;5020656;28;20504;-91
2024/02/13 12:57:25;;;;;;;4.57;1.98;;;11.90;63.90;;;;;;5003697;28;20049;-92